sensor_id;sensor_type;location;lat;lon;timestamp;pressure;altitude;pressure_sealevel;temperature;humidity
72285;BME280;60220;53.552;10.092;2023-06-10T00:02:05;101682.97;;;16.72;70.53
72285;BME280;60220;53.552;10.092;2023-06-10T00:04:33;101680.97;;;16.01;72.31
72285;BME280;60220;53.552;10.092;2023-06-10T00:06:59;101683.66;;;16.39;71.87
72285;BME280;60220;53.552;10.092;2023-06-10T00:09:26;101676.03;;;16.65;70.44
72285;BME280;60220;53.552;10.092;2023-06-10T00:11:55;101676.81;;;16.70;70.64
72285;BME280;60220;53.552;10.092;2023-06-10T00:14:27;101676.03;;;16.65;70.18
72285;BME280;60220;53.552;10.092;2023-06-10T00:16:56;101674.28;;;16.64;70.38
72285;BME280;60220;53.552;10.092;2023-06-10T00:19:25;101684.25;;;16.92;69.65
72285;BME280;60220;53.552;10.092;2023-06-10T00:21:58;101682.75;;;16.42;70.40
72285;BME280;60220;53.552;10.092;2023-06-10T00:24:24;101683.47;;;16.08;71.20
72285;BME280;60220;53.552;10.092;2023-06-10T00:26:51;101675.34;;;16.16;71.25
72285;BME280;60220;53.552;10.092;2023-06-10T00:29:22;101680.41;;;16.28;70.90
72285;BME280;60220;53.552;10.092;2023-06-10T00:31:51;101681.09;;;15.94;71.30
72285;BME280;60220;53.552;10.092;2023-06-10T00:34:22;101678.78;;;15.78;72.66
72285;BME280;60220;53.552;10.092;2023-06-10T00:36:50;101678.78;;;15.78;71.70
72285;BME280;60220;53.552;10.092;2023-06-10T00:39:16;101676.78;;;15.43;72.79
72285;BME280;60220;53.552;10.092;2023-06-10T00:41:43;101682.63;;;15.62;71.51
72285;BME280;60220;53.552;10.092;2023-06-10T00:44:10;101682.06;;;15.90;70.92
72285;BME280;60220;53.552;10.092;2023-06-10T00:46:40;101679.41;;;15.90;70.33
72285;BME280;60220;53.552;10.092;2023-06-10T00:49:07;101674.50;;;15.72;70.75
72285;BME280;60220;53.552;10.092;2023-06-10T00:51:37;101677.81;;;15.83;70.28
72285;BME280;60220;53.552;10.092;2023-06-10T00:54:07;101678.34;;;15.99;69.52
72285;BME280;60220;53.552;10.092;2023-06-10T00:56:34;101679.81;;;15.69;69.07
72285;BME280;60220;53.552;10.092;2023-06-10T00:59:01;101676.44;;;15.11;71.32
72285;BME280;60220;53.552;10.092;2023-06-10T01:01:28;101686.47;;;15.42;71.35
72285;BME280;60220;53.552;10.092;2023-06-10T01:04:00;101676.19;;;15.26;70.66
72285;BME280;60220;53.552;10.092;2023-06-10T01:06:35;101682.09;;;15.41;70.77
72285;BME280;60220;53.552;10.092;2023-06-10T01:09:08;101685.69;;;15.39;70.99
72285;BME280;60220;53.552;10.092;2023-06-10T01:11:45;101679.31;;;15.49;70.11
72285;BME280;60220;53.552;10.092;2023-06-10T01:14:16;101691.38;;;15.15;70.89
72285;BME280;60220;53.552;10.092;2023-06-10T01:16:43;101685.81;;;15.30;70.90
72285;BME280;60220;53.552;10.092;2023-06-10T01:19:12;101687.53;;;15.81;69.43
72285;BME280;60220;53.552;10.092;2023-06-10T01:21:41;101681.81;;;15.58;69.68
72285;BME280;60220;53.552;10.092;2023-06-10T01:24:13;101679.47;;;15.40;70.22
72285;BME280;60220;53.552;10.092;2023-06-10T01:26:44;101691.81;;;15.39;70.11
72285;BME280;60220;53.552;10.092;2023-06-10T01:29:17;101693.41;;;15.49;69.33
72285;BME280;60220;53.552;10.092;2023-06-10T01:31:49;101689.66;;;15.11;70.25
72285;BME280;60220;53.552;10.092;2023-06-10T01:34:17;101693.38;;;15.54;69.49
72285;BME280;60220;53.552;10.092;2023-06-10T01:36:47;101697.06;;;15.44;68.78
72285;BME280;60220;53.552;10.092;2023-06-10T01:39:18;101692.59;;;15.46;69.28
72285;BME280;60220;53.552;10.092;2023-06-10T01:41:50;101687.09;;;15.07;70.37
72285;BME280;60220;53.552;10.092;2023-06-10T01:44:18;101694.97;;;15.63;69.04
72285;BME280;60220;53.552;10.092;2023-06-10T01:46:46;101691.50;;;15.08;70.29
72285;BME280;60220;53.552;10.092;2023-06-10T01:49:12;101689.56;;;15.17;70.16
72285;BME280;60220;53.552;10.092;2023-06-10T01:51:41;101688.59;;;15.24;69.73
72285;BME280;60220;53.552;10.092;2023-06-10T01:54:09;101685.16;;;15.19;69.59
72285;BME280;60220;53.552;10.092;2023-06-10T01:56:36;101685.09;;;15.22;69.26
72285;BME280;60220;53.552;10.092;2023-06-10T01:59:02;101676.97;;;15.31;69.30
72285;BME280;60220;53.552;10.092;2023-06-10T02:01:32;101682.88;;;15.46;69.01
72285;BME280;60220;53.552;10.092;2023-06-10T02:03:59;101682.97;;;15.42;68.86
72285;BME280;60220;53.552;10.092;2023-06-10T02:06:25;101684.03;;;15.32;68.98
72285;BME280;60220;53.552;10.092;2023-06-10T02:08:52;101676.34;;;15.17;69.66
72285;BME280;60220;53.552;10.092;2023-06-10T02:11:20;101675.47;;;15.18;69.79
72285;BME280;60220;53.552;10.092;2023-06-10T02:13:49;101679.88;;;15.17;69.40
72285;BME280;60220;53.552;10.092;2023-06-10T02:16:16;101677.75;;;14.85;69.89
72285;BME280;60220;53.552;10.092;2023-06-10T02:18:43;101681.81;;;15.06;69.50
72285;BME280;60220;53.552;10.092;2023-06-10T02:21:16;101686.88;;;14.64;70.34
72285;BME280;60220;53.552;10.092;2023-06-10T02:23:42;101678.72;;;14.80;70.49
72285;BME280;60220;53.552;10.092;2023-06-10T02:26:09;101676.75;;;14.92;70.09
72285;BME280;60220;53.552;10.092;2023-06-10T02:28:37;101689.03;;;14.95;70.15
72285;BME280;60220;53.552;10.092;2023-06-10T02:31:06;101682.13;;;14.88;69.32
72285;BME280;60220;53.552;10.092;2023-06-10T02:33:32;101677.75;;;14.85;69.69
72285;BME280;60220;53.552;10.092;2023-06-10T02:36:00;101681.97;;;14.98;69.61
72285;BME280;60220;53.552;10.092;2023-06-10T02:38:29;101679.56;;;14.83;69.35
72285;BME280;60220;53.552;10.092;2023-06-10T02:40:58;101686.59;;;14.84;69.66
72285;BME280;60220;53.552;10.092;2023-06-10T02:43:24;101683.72;;;14.98;69.76
72285;BME280;60220;53.552;10.092;2023-06-10T02:45:52;101675.81;;;14.96;69.00
72285;BME280;60220;53.552;10.092;2023-06-10T02:48:23;101685.50;;;14.97;68.68
72285;BME280;60220;53.552;10.092;2023-06-10T02:50:50;101686.44;;;14.93;68.98
72285;BME280;60220;53.552;10.092;2023-06-10T02:53:19;101687.34;;;14.92;68.43
72285;BME280;60220;53.552;10.092;2023-06-10T02:55:46;101689.03;;;14.96;67.99
72285;BME280;60220;53.552;10.092;2023-06-10T02:58:15;101692.41;;;14.49;70.07
72285;BME280;60220;53.552;10.092;2023-06-10T03:00:42;101687.22;;;14.42;70.17
72285;BME280;60220;53.552;10.092;2023-06-10T03:03:10;101694.78;;;14.64;70.15
72285;BME280;60220;53.552;10.092;2023-06-10T03:05:37;101698.41;;;15.16;68.91
72285;BME280;60220;53.552;10.092;2023-06-10T03:08:05;101692.31;;;15.11;68.26
72285;BME280;60220;53.552;10.092;2023-06-10T03:10:35;101695.13;;;15.01;68.81
72285;BME280;60220;53.552;10.092;2023-06-10T03:13:01;101697.06;;;14.90;68.41
72285;BME280;60220;53.552;10.092;2023-06-10T03:15:28;101700.31;;;15.07;68.43
72285;BME280;60220;53.552;10.092;2023-06-10T03:18:00;101703.75;;;15.13;68.21
72285;BME280;60220;53.552;10.092;2023-06-10T03:20:31;101706.50;;;15.05;68.41
72285;BME280;60220;53.552;10.092;2023-06-10T03:23:04;101695.94;;;15.05;68.31
72285;BME280;60220;53.552;10.092;2023-06-10T03:25:34;101696.22;;;14.87;68.65
72285;BME280;60220;53.552;10.092;2023-06-10T03:28:01;101696.47;;;15.27;68.35
72285;BME280;60220;53.552;10.092;2023-06-10T03:30:28;101693.19;;;15.13;68.09
72285;BME280;60220;53.552;10.092;2023-06-10T03:32:57;101688.03;;;15.03;68.47
72285;BME280;60220;53.552;10.092;2023-06-10T03:35:23;101697.69;;;15.58;67.23
72285;BME280;60220;53.552;10.092;2023-06-10T03:37:51;101697.19;;;15.35;67.96
72285;BME280;60220;53.552;10.092;2023-06-10T03:40:18;101689.75;;;15.58;66.86
72285;BME280;60220;53.552;10.092;2023-06-10T03:42:45;101695.50;;;15.31;67.86
72285;BME280;60220;53.552;10.092;2023-06-10T03:45:11;101700.00;;;15.26;68.10
72285;BME280;60220;53.552;10.092;2023-06-10T03:47:38;101703.34;;;15.37;67.53
72285;BME280;60220;53.552;10.092;2023-06-10T03:50:07;101709.50;;;15.39;67.18
72285;BME280;60220;53.552;10.092;2023-06-10T03:52:34;101695.69;;;15.69;66.40
72285;BME280;60220;53.552;10.092;2023-06-10T03:55:03;101701.00;;;15.69;66.48
72285;BME280;60220;53.552;10.092;2023-06-10T03:57:30;101700.34;;;15.58;66.58
72285;BME280;60220;53.552;10.092;2023-06-10T03:59:57;101708.31;;;15.55;66.89
72285;BME280;60220;53.552;10.092;2023-06-10T04:02:24;101701.53;;;15.88;65.74
72285;BME280;60220;53.552;10.092;2023-06-10T04:04:50;101707.88;;;15.79;66.77
72285;BME280;60220;53.552;10.092;2023-06-10T04:07:17;101706.53;;;15.57;66.39
72285;BME280;60220;53.552;10.092;2023-06-10T04:09:48;101699.03;;;15.30;67.20
72285;BME280;60220;53.552;10.092;2023-06-10T04:12:17;101696.63;;;15.68;67.15
72285;BME280;60220;53.552;10.092;2023-06-10T04:14:43;101706.97;;;15.80;66.74
72285;BME280;60220;53.552;10.092;2023-06-10T04:17:10;101693.44;;;15.96;66.27
72285;BME280;60220;53.552;10.092;2023-06-10T04:19:37;101687.38;;;15.89;66.18
72285;BME280;60220;53.552;10.092;2023-06-10T04:22:04;101690.44;;;16.12;65.38
72285;BME280;60220;53.552;10.092;2023-06-10T04:24:33;101696.25;;;15.86;65.54
72285;BME280;60220;53.552;10.092;2023-06-10T04:27:00;101698.28;;;15.74;66.66
72285;BME280;60220;53.552;10.092;2023-06-10T04:29:29;101689.50;;;16.15;65.39
72285;BME280;60220;53.552;10.092;2023-06-10T04:31:56;101691.00;;;16.28;64.87
72285;BME280;60220;53.552;10.092;2023-06-10T04:34:23;101696.56;;;15.71;66.12
72285;BME280;60220;53.552;10.092;2023-06-10T04:36:56;101692.31;;;16.09;65.84
72285;BME280;60220;53.552;10.092;2023-06-10T04:39:22;101689.34;;;16.22;64.57
72285;BME280;60220;53.552;10.092;2023-06-10T04:41:49;101693.88;;;16.57;64.03
72285;BME280;60220;53.552;10.092;2023-06-10T04:44:18;101687.41;;;16.29;64.92
72285;BME280;60220;53.552;10.092;2023-06-10T04:46:46;101694.56;;;16.67;64.10
72285;BME280;60220;53.552;10.092;2023-06-10T04:49:13;101689.19;;;16.70;63.58
72285;BME280;60220;53.552;10.092;2023-06-10T04:51:40;101692.56;;;16.38;64.29
72285;BME280;60220;53.552;10.092;2023-06-10T04:54:09;101690.84;;;16.34;64.88
72285;BME280;60220;53.552;10.092;2023-06-10T04:56:36;101693.81;;;15.77;66.16
72285;BME280;60220;53.552;10.092;2023-06-10T04:59:03;101693.59;;;16.29;65.34
72285;BME280;60220;53.552;10.092;2023-06-10T05:01:30;101698.78;;;16.75;64.37
72285;BME280;60220;53.552;10.092;2023-06-10T05:03:58;101693.53;;;17.09;62.79
72285;BME280;60220;53.552;10.092;2023-06-10T05:06:25;101699.91;;;17.38;61.90
72285;BME280;60220;53.552;10.092;2023-06-10T05:08:54;101692.44;;;18.17;59.58
72285;BME280;60220;53.552;10.092;2023-06-10T05:11:21;101688.28;;;18.08;59.38
72285;BME280;60220;53.552;10.092;2023-06-10T05:13:50;101699.09;;;18.61;57.98
72285;BME280;60220;53.552;10.092;2023-06-10T05:16:17;101688.16;;;18.11;58.86
72285;BME280;60220;53.552;10.092;2023-06-10T05:18:43;101690.19;;;18.03;59.25
72285;BME280;60220;53.552;10.092;2023-06-10T05:21:11;101691.88;;;18.64;57.77
72285;BME280;60220;53.552;10.092;2023-06-10T05:23:38;101690.97;;;18.36;58.25
72285;BME280;60220;53.552;10.092;2023-06-10T05:26:05;101691.28;;;18.25;59.18
72285;BME280;60220;53.552;10.092;2023-06-10T05:28:35;101697.97;;;18.38;58.26
72285;BME280;60220;53.552;10.092;2023-06-10T05:31:01;101702.38;;;18.69;58.04
72285;BME280;60220;53.552;10.092;2023-06-10T05:33:30;101698.13;;;18.63;57.71
72285;BME280;60220;53.552;10.092;2023-06-10T05:35:57;101698.81;;;19.24;55.51
72285;BME280;60220;53.552;10.092;2023-06-10T05:38:25;101699.94;;;19.93;54.65
72285;BME280;60220;53.552;10.092;2023-06-10T05:40:52;101696.59;;;19.63;55.25
72285;BME280;60220;53.552;10.092;2023-06-10T05:43:18;101702.25;;;19.54;55.23
72285;BME280;60220;53.552;10.092;2023-06-10T05:45:45;101693.00;;;18.57;57.53
72285;BME280;60220;53.552;10.092;2023-06-10T05:48:11;101697.47;;;18.26;59.11
72285;BME280;60220;53.552;10.092;2023-06-10T05:50:40;101687.63;;;18.59;58.49
72285;BME280;60220;53.552;10.092;2023-06-10T05:53:10;101686.97;;;18.50;58.47
72285;BME280;60220;53.552;10.092;2023-06-10T05:55:41;101695.53;;;17.35;62.00
72285;BME280;60220;53.552;10.092;2023-06-10T05:58:08;101693.41;;;17.14;62.59
72285;BME280;60220;53.552;10.092;2023-06-10T06:00:35;101695.66;;;17.31;63.05
72285;BME280;60220;53.552;10.092;2023-06-10T06:03:06;101688.06;;;17.83;61.35
72285;BME280;60220;53.552;10.092;2023-06-10T06:05:32;101685.69;;;18.34;59.84
72285;BME280;60220;53.552;10.092;2023-06-10T06:08:01;101681.22;;;18.66;58.29
72285;BME280;60220;53.552;10.092;2023-06-10T06:10:28;101676.34;;;18.50;58.97
72285;BME280;60220;53.552;10.092;2023-06-10T06:12:56;101684.22;;;19.35;57.17
72285;BME280;60220;53.552;10.092;2023-06-10T06:15:23;101677.09;;;19.87;55.28
72285;BME280;60220;53.552;10.092;2023-06-10T06:17:49;101678.34;;;20.00;54.28
72285;BME280;60220;53.552;10.092;2023-06-10T06:20:18;101683.63;;;19.01;56.61
72285;BME280;60220;53.552;10.092;2023-06-10T06:22:44;101679.00;;;19.32;56.43
72285;BME280;60220;53.552;10.092;2023-06-10T06:25:11;101674.03;;;19.73;54.82
72285;BME280;60220;53.552;10.092;2023-06-10T06:27:41;101683.81;;;19.48;55.28
72285;BME280;60220;53.552;10.092;2023-06-10T06:30:10;101682.28;;;19.14;56.21
72285;BME280;60220;53.552;10.092;2023-06-10T06:32:37;101670.56;;;19.20;56.76
72285;BME280;60220;53.552;10.092;2023-06-10T06:35:04;101676.88;;;19.17;56.26
72285;BME280;60220;53.552;10.092;2023-06-10T06:37:33;101684.63;;;19.50;55.73
72285;BME280;60220;53.552;10.092;2023-06-10T06:40:00;101679.22;;;20.24;54.00
72285;BME280;60220;53.552;10.092;2023-06-10T06:42:27;101681.13;;;20.67;52.08
72285;BME280;60220;53.552;10.092;2023-06-10T06:44:53;101681.75;;;20.95;51.81
72285;BME280;60220;53.552;10.092;2023-06-10T06:47:22;101683.31;;;21.43;49.98
72285;BME280;60220;53.552;10.092;2023-06-10T06:49:51;101691.63;;;21.15;50.86
72285;BME280;60220;53.552;10.092;2023-06-10T06:52:19;101680.59;;;20.57;52.17
72285;BME280;60220;53.552;10.092;2023-06-10T06:54:50;101686.88;;;20.78;51.47
72285;BME280;60220;53.552;10.092;2023-06-10T06:57:17;101680.75;;;20.76;51.58
72285;BME280;60220;53.552;10.092;2023-06-10T06:59:44;101682.38;;;21.44;50.51
72285;BME280;60220;53.552;10.092;2023-06-10T07:02:10;101682.75;;;20.25;53.09
72285;BME280;60220;53.552;10.092;2023-06-10T07:04:38;101682.19;;;21.48;50.96
72285;BME280;60220;53.552;10.092;2023-06-10T07:07:07;101690.25;;;21.27;50.77
72285;BME280;60220;53.552;10.092;2023-06-10T07:09:34;101676.16;;;22.04;49.75
72285;BME280;60220;53.552;10.092;2023-06-10T07:12:01;101685.91;;;22.05;48.83
72285;BME280;60220;53.552;10.092;2023-06-10T07:14:27;101694.66;;;21.48;50.70
72285;BME280;60220;53.552;10.092;2023-06-10T07:16:54;101692.25;;;21.82;49.36
72285;BME280;60220;53.552;10.092;2023-06-10T07:19:21;101693.88;;;23.17;46.31
72285;BME280;60220;53.552;10.092;2023-06-10T07:21:49;101699.53;;;23.11;46.15
72285;BME280;60220;53.552;10.092;2023-06-10T07:24:18;101694.44;;;23.93;44.94
72285;BME280;60220;53.552;10.092;2023-06-10T07:26:45;101691.25;;;24.19;43.96
72285;BME280;60220;53.552;10.092;2023-06-10T07:29:14;101693.03;;;23.69;44.58
72285;BME280;60220;53.552;10.092;2023-06-10T07:31:41;101694.78;;;23.70;44.89
72285;BME280;60220;53.552;10.092;2023-06-10T07:34:08;101694.22;;;22.93;47.23
72285;BME280;60220;53.552;10.092;2023-06-10T07:36:34;101697.72;;;23.48;45.61
72285;BME280;60220;53.552;10.092;2023-06-10T07:39:04;101696.88;;;23.29;46.52
72285;BME280;60220;53.552;10.092;2023-06-10T07:41:31;101697.59;;;22.79;46.78
72285;BME280;60220;53.552;10.092;2023-06-10T07:43:57;101695.38;;;23.06;47.05
72285;BME280;60220;53.552;10.092;2023-06-10T07:46:27;101699.53;;;23.65;45.37
72285;BME280;60220;53.552;10.092;2023-06-10T07:48:56;101695.38;;;23.23;46.32
72285;BME280;60220;53.552;10.092;2023-06-10T07:51:22;101699.31;;;23.16;46.77
72285;BME280;60220;53.552;10.092;2023-06-10T07:53:49;101687.28;;;22.89;47.55
72285;BME280;60220;53.552;10.092;2023-06-10T07:56:17;101689.03;;;22.90;48.19
72285;BME280;60220;53.552;10.092;2023-06-10T07:58:46;101689.63;;;23.99;45.43
72285;BME280;60220;53.552;10.092;2023-06-10T08:01:12;101687.38;;;23.75;45.66
72285;BME280;60220;53.552;10.092;2023-06-10T08:03:39;101686.56;;;23.73;45.46
72285;BME280;60220;53.552;10.092;2023-06-10T08:06:05;101683.13;;;24.03;45.62
72285;BME280;60220;53.552;10.092;2023-06-10T08:08:32;101685.81;;;23.53;45.82
72285;BME280;60220;53.552;10.092;2023-06-10T08:11:00;101687.25;;;23.07;47.12
72285;BME280;60220;53.552;10.092;2023-06-10T08:13:28;101693.06;;;22.42;48.46
72285;BME280;60220;53.552;10.092;2023-06-10T08:15:56;101692.25;;;22.03;50.46
72285;BME280;60220;53.552;10.092;2023-06-10T08:18:23;101693.94;;;22.24;49.83
72285;BME280;60220;53.552;10.092;2023-06-10T08:20:50;101697.00;;;22.54;49.60
72285;BME280;60220;53.552;10.092;2023-06-10T08:23:16;101701.00;;;23.53;46.47
72285;BME280;60220;53.552;10.092;2023-06-10T08:25:45;101692.97;;;24.03;45.63
72285;BME280;60220;53.552;10.092;2023-06-10T08:28:15;101690.19;;;23.20;47.65
72285;BME280;60220;53.552;10.092;2023-06-10T08:30:43;101698.84;;;23.77;45.75
72285;BME280;60220;53.552;10.092;2023-06-10T08:33:09;101691.69;;;23.26;46.95
72285;BME280;60220;53.552;10.092;2023-06-10T08:35:36;101697.44;;;24.68;44.36
72285;BME280;60220;53.552;10.092;2023-06-10T08:38:05;101696.47;;;24.85;43.56
72285;BME280;60220;53.552;10.092;2023-06-10T08:40:34;101693.72;;;23.89;45.14
72285;BME280;60220;53.552;10.092;2023-06-10T08:43:10;101691.47;;;23.65;46.63
72285;BME280;60220;53.552;10.092;2023-06-10T08:45:43;101679.38;;;23.90;45.49
72285;BME280;60220;53.552;10.092;2023-06-10T08:48:16;101685.47;;;24.10;45.37
72285;BME280;60220;53.552;10.092;2023-06-10T08:50:44;101689.00;;;24.43;44.52
72285;BME280;60220;53.552;10.092;2023-06-10T08:53:14;101682.81;;;24.10;46.04
72285;BME280;60220;53.552;10.092;2023-06-10T08:55:47;101688.25;;;25.34;43.57
72285;BME280;60220;53.552;10.092;2023-06-10T08:58:17;101689.88;;;23.78;45.85
72285;BME280;60220;53.552;10.092;2023-06-10T09:00:45;101691.88;;;24.07;46.44
72285;BME280;60220;53.552;10.092;2023-06-10T09:03:14;101687.97;;;25.08;43.80
72285;BME280;60220;53.552;10.092;2023-06-10T09:05:41;101686.31;;;25.36;43.53
72285;BME280;60220;53.552;10.092;2023-06-10T09:08:09;101684.00;;;24.84;43.53
72285;BME280;60220;53.552;10.092;2023-06-10T09:10:38;101686.78;;;24.98;44.08
72285;BME280;60220;53.552;10.092;2023-06-10T09:13:05;101682.38;;;25.27;44.57
72285;BME280;60220;53.552;10.092;2023-06-10T09:15:32;101680.72;;;25.98;42.73
72285;BME280;60220;53.552;10.092;2023-06-10T09:18:00;101671.78;;;26.12;42.60
72285;BME280;60220;53.552;10.092;2023-06-10T09:20:27;101680.16;;;25.19;43.61
72285;BME280;60220;53.552;10.092;2023-06-10T09:22:54;101671.00;;;24.29;45.70
72285;BME280;60220;53.552;10.092;2023-06-10T09:25:35;101674.88;;;24.86;44.97
72285;BME280;60220;53.552;10.092;2023-06-10T09:28:03;101679.53;;;25.30;45.14
72285;BME280;60220;53.552;10.092;2023-06-10T09:30:31;101673.25;;;24.53;45.74
72285;BME280;60220;53.552;10.092;2023-06-10T09:33:02;101672.06;;;24.74;45.31
72285;BME280;60220;53.552;10.092;2023-06-10T09:35:30;101683.91;;;25.01;45.18
72285;BME280;60220;53.552;10.092;2023-06-10T09:38:00;101666.00;;;24.39;46.16
72285;BME280;60220;53.552;10.092;2023-06-10T09:40:27;101659.91;;;24.67;45.09
72285;BME280;60220;53.552;10.092;2023-06-10T09:42:55;101665.47;;;24.64;46.84
72285;BME280;60220;53.552;10.092;2023-06-10T09:45:23;101667.19;;;24.80;47.13
72285;BME280;60220;53.552;10.092;2023-06-10T09:47:52;101667.81;;;24.54;46.39
72285;BME280;60220;53.552;10.092;2023-06-10T09:50:20;101662.56;;;23.87;47.31
72285;BME280;60220;53.552;10.092;2023-06-10T09:52:47;101665.78;;;24.26;46.67
72285;BME280;60220;53.552;10.092;2023-06-10T09:55:14;101657.59;;;24.45;48.39
72285;BME280;60220;53.552;10.092;2023-06-10T09:57:41;101674.88;;;24.86;47.02
72285;BME280;60220;53.552;10.092;2023-06-10T10:00:11;101668.75;;;25.00;45.10
72285;BME280;60220;53.552;10.092;2023-06-10T10:02:45;101664.31;;;24.36;47.35
72285;BME280;60220;53.552;10.092;2023-06-10T10:05:13;101665.75;;;24.11;49.55
72285;BME280;60220;53.552;10.092;2023-06-10T10:07:42;101674.88;;;24.86;47.09
72285;BME280;60220;53.552;10.092;2023-06-10T10:10:12;101674.47;;;24.94;45.15
72285;BME280;60220;53.552;10.092;2023-06-10T10:12:40;101677.31;;;24.11;47.72
72285;BME280;60220;53.552;10.092;2023-06-10T10:15:08;101677.75;;;24.36;46.98
72285;BME280;60220;53.552;10.092;2023-06-10T10:17:38;101676.22;;;24.64;46.91
72285;BME280;60220;53.552;10.092;2023-06-10T10:20:07;101675.69;;;25.04;46.61
72285;BME280;60220;53.552;10.092;2023-06-10T10:22:38;101669.59;;;25.01;47.15
72285;BME280;60220;53.552;10.092;2023-06-10T10:25:10;101671.25;;;25.03;45.79
72285;BME280;60220;53.552;10.092;2023-06-10T10:27:43;101664.19;;;25.16;45.86
72285;BME280;60220;53.552;10.092;2023-06-10T10:30:11;101664.03;;;25.19;46.18
72285;BME280;60220;53.552;10.092;2023-06-10T10:32:45;101667.75;;;24.56;47.09
72285;BME280;60220;53.552;10.092;2023-06-10T10:35:18;101675.22;;;25.42;46.02
72285;BME280;60220;53.552;10.092;2023-06-10T10:37:52;101663.69;;;25.69;44.27
72285;BME280;60220;53.552;10.092;2023-06-10T10:40:21;101665.31;;;25.86;44.67
72285;BME280;60220;53.552;10.092;2023-06-10T10:42:49;101657.16;;;26.02;45.80
72285;BME280;60220;53.552;10.092;2023-06-10T10:45:16;101657.59;;;25.22;45.82
72285;BME280;60220;53.552;10.092;2023-06-10T10:47:45;101660.47;;;25.49;45.01
72285;BME280;60220;53.552;10.092;2023-06-10T10:50:16;101658.09;;;25.28;45.32
72285;BME280;60220;53.552;10.092;2023-06-10T10:52:53;101656.59;;;25.68;44.85
72285;BME280;60220;53.552;10.092;2023-06-10T10:55:22;101657.81;;;25.63;44.20
72285;BME280;60220;53.552;10.092;2023-06-10T10:57:56;101646.03;;;25.94;44.30
72285;BME280;60220;53.552;10.092;2023-06-10T11:00:30;101654.75;;;25.69;44.30
72285;BME280;60220;53.552;10.092;2023-06-10T11:03:05;101659.00;;;25.73;44.63
72285;BME280;60220;53.552;10.092;2023-06-10T11:05:37;101649.16;;;25.58;44.33
72285;BME280;60220;53.552;10.092;2023-06-10T11:08:05;101647.56;;;25.98;44.89
72285;BME280;60220;53.552;10.092;2023-06-10T11:10:35;101653.59;;;26.01;44.29
72285;BME280;60220;53.552;10.092;2023-06-10T11:13:06;101649.28;;;26.27;43.74
72285;BME280;60220;53.552;10.092;2023-06-10T11:15:38;101653.50;;;26.31;44.72
72285;BME280;60220;53.552;10.092;2023-06-10T11:18:14;101647.25;;;25.60;44.99
72285;BME280;60220;53.552;10.092;2023-06-10T11:20:43;101652.41;;;24.89;46.48
72285;BME280;60220;53.552;10.092;2023-06-10T11:23:10;101657.78;;;25.19;45.78
72285;BME280;60220;53.552;10.092;2023-06-10T11:26:09;101649.38;;;25.97;44.32
72285;BME280;60220;53.552;10.092;2023-06-10T11:28:36;101643.22;;;25.95;45.36
72285;BME280;60220;53.552;10.092;2023-06-10T11:31:02;101649.19;;;26.43;44.34
72285;BME280;60220;53.552;10.092;2023-06-10T11:33:29;101650.38;;;26.25;44.98
72285;BME280;60220;53.552;10.092;2023-06-10T11:35:57;101640.94;;;25.75;45.74
72285;BME280;60220;53.552;10.092;2023-06-10T11:38:28;101642.97;;;25.42;46.36
72285;BME280;60220;53.552;10.092;2023-06-10T11:40:58;101640.66;;;26.22;44.90
72285;BME280;60220;53.552;10.092;2023-06-10T11:43:25;101643.59;;;26.18;44.90
72285;BME280;60220;53.552;10.092;2023-06-10T11:45:54;101642.97;;;26.28;44.54
72285;BME280;60220;53.552;10.092;2023-06-10T11:48:21;101642.69;;;26.60;44.72
72285;BME280;60220;53.552;10.092;2023-06-10T11:50:48;101654.16;;;26.49;44.42
72285;BME280;60220;53.552;10.092;2023-06-10T11:53:14;101641.50;;;26.08;44.93
72285;BME280;60220;53.552;10.092;2023-06-10T11:55:42;101642.53;;;26.89;43.72
72285;BME280;60220;53.552;10.092;2023-06-10T11:58:14;101643.00;;;26.55;44.58
72285;BME280;60220;53.552;10.092;2023-06-10T12:00:45;101644.44;;;26.87;44.42
72285;BME280;60220;53.552;10.092;2023-06-10T12:03:12;101636.38;;;26.87;43.28
72285;BME280;60220;53.552;10.092;2023-06-10T12:05:39;101638.78;;;25.66;46.41
72285;BME280;60220;53.552;10.092;2023-06-10T12:08:08;101638.78;;;26.37;44.80
72285;BME280;60220;53.552;10.092;2023-06-10T12:10:39;101630.63;;;26.38;44.49
72285;BME280;60220;53.552;10.092;2023-06-10T12:13:06;101633.75;;;25.90;45.33
72285;BME280;60220;53.552;10.092;2023-06-10T12:15:34;101637.28;;;26.33;45.01
72285;BME280;60220;53.552;10.092;2023-06-10T12:18:01;101635.84;;;25.99;45.63
72285;BME280;60220;53.552;10.092;2023-06-10T12:20:35;101636.66;;;26.42;45.55
72285;BME280;60220;53.552;10.092;2023-06-10T12:23:09;101634.16;;;26.53;43.85
72285;BME280;60220;53.552;10.092;2023-06-10T12:25:36;101631.94;;;26.45;44.01
72285;BME280;60220;53.552;10.092;2023-06-10T12:28:04;101623.94;;;26.58;43.66
72285;BME280;60220;53.552;10.092;2023-06-10T12:30:32;101630.88;;;26.89;43.32
72285;BME280;60220;53.552;10.092;2023-06-10T12:33:02;101625.09;;;27.08;43.30
72285;BME280;60220;53.552;10.092;2023-06-10T12:35:31;101615.03;;;26.70;44.08
72285;BME280;60220;53.552;10.092;2023-06-10T12:37:59;101617.31;;;26.76;44.08
72285;BME280;60220;53.552;10.092;2023-06-10T12:40:27;101603.63;;;26.40;44.09
72285;BME280;60220;53.552;10.092;2023-06-10T12:42:55;101605.13;;;26.71;44.37
72285;BME280;60220;53.552;10.092;2023-06-10T12:45:29;101605.78;;;26.88;43.79
72285;BME280;60220;53.552;10.092;2023-06-10T12:48:08;101600.31;;;27.15;43.28